Time;durP1;ratioP1;P1;durP2;ratioP2;P2;SDS_P1;SDS_P2;PMS_P1;PMS_P2;Temp;Humidity;BMP_temperature;BMP_pressure;BME280_temperature;BME280_humidity;BME280_pressure;Samples;Min_cycle;Max_cycle;Signal;HPM_P1;HPM_P2
2022/11/07 00:01:58;;;;;;;12.70;7.10;;;10.60;99.90;;;;;;5008478;28;20060;-50
2022/11/07 00:04:27;;;;;;;11.70;6.10;;;11.00;99.90;;;;;;5003431;28;20130;-52
2022/11/07 00:06:53;;;;;;;8.90;5.90;;;10.30;99.90;;;;;;5003003;28;20201;-48
2022/11/07 00:09:18;;;;;;;10.85;6.25;;;10.20;99.90;;;;;;5004763;28;20612;-50
2022/11/07 00:11:44;;;;;;;10.15;5.32;;;11.40;99.90;;;;;;5004334;28;20076;-49
2022/11/07 00:14:14;;;;;;;12.45;5.53;;;10.50;99.90;;;;;;5004043;28;20045;-51
2022/11/07 00:16:40;;;;;;;14.18;5.90;;;10.20;99.90;;;;;;5002445;28;20120;-50
2022/11/07 00:19:06;;;;;;;10.00;5.60;;;12.40;99.90;;;;;;5003451;28;20056;-48
2022/11/07 00:21:32;;;;;;;13.10;6.40;;;10.30;99.90;;;;;;5004066;28;20048;-49
2022/11/07 00:23:58;;;;;;;15.63;7.03;;;10.50;99.90;;;;;;5005085;28;20050;-47
2022/11/07 00:26:24;;;;;;;10.25;6.10;;;10.40;99.90;;;;;;5004408;28;20038;-51
2022/11/07 00:28:49;;;;;;;14.02;6.57;;;10.40;99.90;;;;;;4999717;28;20343;-50
2022/11/07 00:31:16;;;;;;;15.60;6.60;;;12.00;99.90;;;;;;5003561;28;20049;-48
2022/11/07 00:33:42;;;;;;;13.23;6.53;;;12.00;99.90;;;;;;5002007;28;20046;-49
2022/11/07 00:36:14;;;;;;;13.55;6.70;;;10.30;99.90;;;;;;5005329;28;20087;-49
2022/11/07 00:38:40;;;;;;;;;;;10.50;99.90;;;;;;5001763;28;20064;-52
2022/11/07 00:41:06;;;;;;;10.02;6.57;;;10.40;99.90;;;;;;5006235;28;19925;-48
2022/11/07 00:43:32;;;;;;;13.30;6.68;;;10.40;99.90;;;;;;5002009;28;20834;-49
2022/11/07 00:46:04;;;;;;;12.38;6.50;;;10.40;99.90;;;;;;5002201;28;20504;-50
2022/11/07 00:48:30;;;;;;;13.23;6.70;;;10.50;99.90;;;;;;5001187;28;20945;-47
2022/11/07 00:50:56;;;;;;;14.45;6.97;;;12.00;99.90;;;;;;5003805;28;20052;-51
2022/11/07 00:53:22;;;;;;;17.00;7.72;;;10.40;99.90;;;;;;5001627;28;20073;-46
2022/11/07 00:55:47;;;;;;;17.20;7.07;;;11.10;99.90;;;;;;4999652;28;20144;-46
2022/11/07 00:58:14;;;;;;;12.77;7.57;;;10.30;99.90;;;;;;5003519;28;20115;-49
2022/11/07 01:00:40;;;;;;;11.65;6.43;;;10.90;99.90;;;;;;5001168;28;20346;-47
2022/11/07 01:06:02;;;;;;;14.50;6.65;;;11.10;99.90;;;;;;5000509;28;20041;-46
2022/11/07 01:08:28;;;;;;;16.40;7.15;;;11.20;99.90;;;;;;5002782;28;20061;-49
2022/11/07 01:10:53;;;;;;;18.70;6.63;;;10.30;99.90;;;;;;5002516;28;20072;-48
2022/11/07 01:13:20;;;;;;;14.95;6.60;;;11.30;99.90;;;;;;5003286;28;20380;-52
2022/11/07 01:15:46;;;;;;;20.05;7.05;;;10.50;99.90;;;;;;5003022;28;20568;-46
2022/11/07 01:18:11;;;;;;;11.30;5.97;;;12.40;99.90;;;;;;4998824;28;20050;-49
2022/11/07 01:20:37;;;;;;;19.42;6.63;;;10.30;99.90;;;;;;5006900;28;20442;-47
2022/11/07 01:23:03;;;;;;;11.77;6.18;;;10.30;99.90;;;;;;5007754;28;20042;-48
2022/11/07 01:25:29;;;;;;;18.02;6.40;;;10.30;99.90;;;;;;5010349;28;20041;-49
2022/11/07 01:27:54;;;;;;;17.33;6.82;;;12.00;99.90;;;;;;5005520;28;20037;-49
2022/11/07 01:30:20;;;;;;;16.27;6.25;;;10.50;99.90;;;;;;5007488;28;20057;-46
2022/11/07 01:32:46;;;;;;;15.32;6.28;;;10.40;99.90;;;;;;5007414;28;20064;-47
2022/11/07 01:35:11;;;;;;;17.88;6.90;;;11.20;99.90;;;;;;5002687;28;20038;-49
2022/11/07 01:37:37;;;;;;;20.38;7.47;;;11.10;99.90;;;;;;5008212;28;20038;-46
2022/11/07 01:40:03;;;;;;;18.60;7.18;;;10.60;99.90;;;;;;5003954;28;20085;-46
2022/11/07 01:42:29;;;;;;;15.30;6.80;;;10.30;99.90;;;;;;5006511;28;20072;-49
2022/11/07 01:44:57;;;;;;;14.68;6.10;;;10.70;99.90;;;;;;5005275;28;20045;-47
2022/11/07 01:47:27;;;;;;;15.02;6.50;;;11.00;99.90;;;;;;5003812;28;20053;-48
2022/11/07 01:49:53;;;;;;;16.88;6.35;;;10.30;99.90;;;;;;5007756;28;20190;-46
2022/11/07 01:52:22;;;;;;;14.50;7.13;;;11.10;99.90;;;;;;5006557;28;20041;-49
2022/11/07 01:54:53;;;;;;;14.15;5.93;;;10.30;99.90;;;;;;5006542;28;20044;-47
2022/11/07 01:57:39;;;;;;;15.57;5.72;;;10.30;99.90;;;;;;5006770;28;20072;-49
2022/11/07 02:00:08;;;;;;;12.00;5.20;;;10.40;99.90;;;;;;5006258;28;20116;-46
2022/11/07 02:02:34;;;;;;;12.90;5.63;;;10.40;99.90;;;;;;4998881;28;20057;-47
2022/11/07 02:05:02;;;;;;;16.70;5.32;;;11.80;99.90;;;;;;5006637;28;20091;-47
2022/11/07 02:07:28;;;;;;;12.90;5.25;;;10.50;99.90;;;;;;5004346;28;20204;-47
2022/11/07 02:09:54;;;;;;;12.95;4.88;;;10.50;99.90;;;;;;5004534;28;20101;-48
2022/11/07 02:12:23;;;;;;;11.65;4.45;;;11.60;99.90;;;;;;5006084;28;20053;-48
2022/11/07 02:14:49;;;;;;;17.00;5.28;;;10.40;99.90;;;;;;5004952;28;20053;-48
2022/11/07 02:17:16;;;;;;;12.48;5.03;;;10.40;99.90;;;;;;5006447;28;20053;-49
2022/11/07 02:19:51;;;;;;;13.23;5.07;;;10.50;99.90;;;;;;5003639;28;20064;-50
2022/11/07 02:22:27;;;;;;;16.83;4.82;;;10.50;99.90;;;;;;5004921;28;20037;-46
2022/11/07 02:24:56;;;;;;;11.43;4.40;;;10.50;99.90;;;;;;5005121;28;20042;-47
2022/11/07 02:27:26;;;;;;;9.80;3.83;;;10.40;99.90;;;;;;5000132;28;20536;-46
2022/11/07 02:29:57;;;;;;;13.85;3.53;;;10.60;99.90;;;;;;5002617;28;20467;-48
2022/11/07 02:32:23;;;;;;;14.63;3.97;;;10.40;99.90;;;;;;5004203;28;20621;-49
2022/11/07 02:35:00;;;;;;;12.52;3.60;;;10.80;99.90;;;;;;5005011;28;20029;-51
2022/11/07 02:37:32;;;;;;;12.25;3.90;;;10.50;99.90;;;;;;5006377;28;20042;-49
2022/11/07 02:40:00;;;;;;;12.52;3.47;;;10.40;99.90;;;;;;5005415;28;20033;-46
2022/11/07 02:42:42;;;;;;;10.73;3.33;;;10.50;99.90;;;;;;5005238;28;20576;-47
2022/11/07 02:45:15;;;;;;;11.77;2.95;;;12.00;99.90;;;;;;5005947;28;20204;-51
2022/11/07 02:47:41;;;;;;;15.65;4.70;;;10.50;99.90;;;;;;5002468;28;20495;-48
2022/11/07 02:50:09;;;;;;;14.65;3.90;;;10.40;99.90;;;;;;5007990;28;20041;-49
2022/11/07 02:52:35;;;;;;;14.00;3.67;;;10.50;99.90;;;;;;5004313;28;20562;-48
2022/11/07 02:55:01;;;;;;;13.30;3.45;;;10.40;99.90;;;;;;5008091;28;20049;-51
2022/11/07 02:57:27;;;;;;;7.68;3.38;;;12.40;99.90;;;;;;5004204;28;20054;-47
2022/11/07 02:59:52;;;;;;;10.65;2.97;;;10.40;99.90;;;;;;5006590;28;20539;-51
2022/11/07 03:02:18;;;;;;;11.70;3.20;;;11.80;99.90;;;;;;5003995;28;20081;-47
2022/11/07 03:04:44;;;;;;;12.40;3.10;;;11.60;99.90;;;;;;5003904;28;20106;-48
2022/11/07 03:07:09;;;;;;;10.50;2.83;;;10.50;99.90;;;;;;5005640;28;20040;-48
2022/11/07 03:09:35;;;;;;;12.48;3.20;;;10.70;99.90;;;;;;5002845;28;20104;-50
2022/11/07 03:12:01;;;;;;;12.07;3.33;;;10.50;99.90;;;;;;5073425;28;20050;-48
2022/11/07 03:14:26;;;;;;;16.70;4.20;;;10.30;99.90;;;;;;5006107;28;20444;-48
2022/11/07 03:16:52;;;;;;;10.85;3.47;;;10.50;99.90;;;;;;5003820;28;20037;-51
2022/11/07 03:19:18;;;;;;;14.65;4.10;;;11.10;99.90;;;;;;5004519;28;20047;-52
2022/11/07 03:21:43;;;;;;;12.05;3.60;;;10.60;99.90;;;;;;5000851;28;20050;-49
2022/11/07 03:24:09;;;;;;;15.80;3.65;;;10.50;99.90;;;;;;5003174;28;20611;-47
2022/11/07 03:26:35;;;;;;;13.48;3.22;;;10.50;99.90;;;;;;5002571;28;20048;-48
2022/11/07 03:29:00;;;;;;;14.82;3.53;;;11.70;99.90;;;;;;5005100;28;20061;-47
2022/11/07 03:31:26;;;;;;;11.23;3.22;;;12.30;99.90;;;;;;5007154;28;20223;-47
2022/11/07 03:33:52;;;;;;;10.02;3.20;;;11.90;99.90;;;;;;5003713;28;21015;-47
2022/11/07 03:36:17;;;;;;;13.23;2.63;;;11.00;99.90;;;;;;4999811;28;20406;-47
2022/11/07 03:38:43;;;;;;;14.85;3.22;;;10.30;99.90;;;;;;5002645;28;20064;-46
2022/11/07 03:41:09;;;;;;;17.63;3.30;;;10.50;99.90;;;;;;5004822;28;20124;-46
2022/11/07 03:43:34;;;;;;;10.95;3.05;;;10.50;99.90;;;;;;5001656;28;20730;-47
2022/11/07 03:46:00;;;;;;;12.10;3.10;;;10.50;99.90;;;;;;5006659;28;20041;-47
2022/11/07 03:48:26;;;;;;;11.90;2.90;;;10.40;99.90;;;;;;5004953;28;20567;-48
2022/11/07 03:50:51;;;;;;;15.52;2.70;;;10.50;99.90;;;;;;5005540;28;20036;-47
2022/11/07 03:53:17;;;;;;;14.30;3.25;;;11.50;99.90;;;;;;5004794;28;20052;-47
2022/11/07 03:55:46;;;;;;;16.58;2.95;;;11.10;99.90;;;;;;5002850;28;20038;-50
2022/11/07 03:58:12;;;;;;;11.38;2.75;;;10.40;99.90;;;;;;5007351;28;20064;-48
2022/11/07 04:00:37;;;;;;;11.77;2.95;;;10.30;99.90;;;;;;5006653;28;20682;-48
2022/11/07 04:03:03;;;;;;;15.63;2.90;;;10.40;99.90;;;;;;5006553;28;20774;-47
2022/11/07 04:05:29;;;;;;;14.82;2.95;;;10.30;99.90;;;;;;5002722;28;20487;-50
2022/11/07 04:07:55;;;;;;;13.27;2.80;;;10.30;99.90;;;;;;5006234;28;20069;-48
2022/11/07 04:10:21;;;;;;;13.15;2.72;;;10.50;99.90;;;;;;5005901;28;20148;-48
2022/11/07 04:18:15;;;;;;;18.17;3.00;;;12.20;99.90;;;;;;5002708;28;20045;-47
2022/11/07 04:20:41;;;;;;;22.10;4.72;;;10.50;99.90;;;;;;5001309;28;20037;-49
2022/11/07 04:23:06;;;;;;;15.82;3.25;;;10.40;99.90;;;;;;5006157;28;20475;-47
2022/11/07 04:28:17;;;;;;;20.02;3.40;;;10.30;99.90;;;;;;5004127;28;20050;-48
2022/11/07 04:30:43;;;;;;;21.27;3.85;;;10.30;99.90;;;;;;5004059;28;20037;-46
2022/11/07 04:33:08;;;;;;;13.15;3.28;;;11.50;99.90;;;;;;4998706;28;20539;-47
2022/11/07 04:35:34;;;;;;;17.85;3.25;;;10.30;99.90;;;;;;5004602;28;20109;-47
2022/11/07 04:38:00;;;;;;;17.42;3.55;;;12.30;99.90;;;;;;5003873;28;20090;-51
2022/11/07 04:40:27;;;;;;;10.93;3.63;;;10.30;99.90;;;;;;5000535;28;20503;-47
2022/11/07 04:42:53;;;;;;;16.80;3.22;;;10.00;99.90;;;;;;5001139;28;20037;-47
2022/11/07 04:45:19;;;;;;;14.25;3.25;;;10.50;99.90;;;;;;5002415;28;20585;-47
2022/11/07 04:47:45;;;;;;;17.77;3.40;;;10.40;99.90;;;;;;5001532;28;20224;-49
2022/11/07 04:50:15;;;;;;;21.95;4.55;;;11.10;99.90;;;;;;5002533;28;20042;-46
2022/11/07 04:52:41;;;;;;;15.63;3.53;;;11.00;99.90;;;;;;5004185;28;20507;-48
2022/11/07 04:55:09;;;;;;;15.35;3.45;;;10.40;99.90;;;;;;5003894;28;20037;-47
2022/11/07 04:57:34;;;;;;;19.05;4.40;;;10.40;99.90;;;;;;5006308;28;20035;-47
2022/11/07 05:00:01;;;;;;;17.70;4.47;;;11.70;99.90;;;;;;5007031;28;20033;-47
2022/11/07 05:02:27;;;;;;;17.40;4.55;;;12.20;99.90;;;;;;5006618;28;20116;-46
2022/11/07 05:04:52;;;;;;;13.30;3.80;;;10.30;99.90;;;;;;5006860;28;20174;-46
2022/11/07 05:07:19;;;;;;;15.43;3.70;;;10.30;99.90;;;;;;5008183;28;20041;-49
2022/11/07 05:09:45;;;;;;;13.95;3.90;;;12.10;99.90;;;;;;5009463;28;20045;-50
2022/11/07 05:12:10;;;;;;;15.65;4.38;;;11.00;99.90;;;;;;5008655;28;20243;-49
2022/11/07 05:14:36;;;;;;;16.25;4.68;;;10.20;99.90;;;;;;5008346;28;20048;-49
2022/11/07 05:17:03;;;;;;;14.95;3.50;;;11.60;99.90;;;;;;5008374;28;20046;-50
2022/11/07 05:19:28;;;;;;;17.30;4.00;;;10.30;99.90;;;;;;5006772;28;20503;-49
2022/11/07 05:24:46;;;;;;;21.80;4.40;;;10.10;99.90;;;;;;5017018;28;20042;-47
2022/11/07 05:27:19;;;;;;;17.08;4.45;;;10.00;99.90;;;;;;5006464;28;20038;-45
2022/11/07 05:29:45;;;;;;;17.48;4.18;;;10.10;99.90;;;;;;5007914;28;20076;-46
2022/11/07 05:32:11;;;;;;;17.00;5.20;;;10.30;99.90;;;;;;5002240;28;20156;-48
2022/11/07 05:34:37;;;;;;;17.10;4.45;;;11.60;99.90;;;;;;5005406;28;20052;-47
2022/11/07 05:37:07;;;;;;;18.92;3.95;;;10.00;99.90;;;;;;5018704;28;20205;-46
2022/11/07 05:39:32;;;;;;;16.58;4.50;;;10.20;99.90;;;;;;5004704;28;20042;-45
2022/11/07 05:42:00;;;;;;;15.77;4.57;;;12.20;99.90;;;;;;5007837;28;20438;-49
2022/11/07 05:44:25;;;;;;;17.83;4.38;;;11.10;99.90;;;;;;5007137;28;20048;-46
2022/11/07 05:46:51;;;;;;;17.27;5.15;;;10.30;99.90;;;;;;5007569;28;20087;-48
2022/11/07 05:49:17;;;;;;;17.40;4.50;;;10.60;99.90;;;;;;5007300;28;20575;-48
2022/11/07 05:51:43;;;;;;;18.80;6.63;;;10.20;99.90;;;;;;5003520;28;20053;-48
2022/11/07 05:54:08;;;;;;;18.10;4.90;;;11.10;99.90;;;;;;5006608;28;20545;-46
2022/11/07 05:56:36;;;;;;;13.60;4.22;;;10.10;99.90;;;;;;5003999;28;20061;-47
2022/11/07 05:59:03;;;;;;;17.90;5.30;;;10.20;99.90;;;;;;5006900;28;20154;-48
2022/11/07 06:01:29;;;;;;;17.15;5.25;;;11.40;99.90;;;;;;5017965;28;20049;-45
2022/11/07 06:03:55;;;;;;;21.98;4.68;;;10.50;99.90;;;;;;5003648;28;20499;-47
2022/11/07 06:06:21;;;;;;;15.77;5.30;;;10.50;99.90;;;;;;5001742;28;20068;-50
2022/11/07 06:08:47;;;;;;;15.13;4.68;;;10.30;99.90;;;;;;5001480;28;20733;-46
2022/11/07 06:11:13;;;;;;;19.67;5.38;;;11.60;99.90;;;;;;4999381;28;20050;-46
2022/11/07 06:13:38;;;;;;;13.73;4.45;;;10.10;99.90;;;;;;5005286;28;20053;-45
2022/11/07 06:16:05;;;;;;;17.52;5.20;;;11.70;99.90;;;;;;5007140;28;20526;-46
2022/11/07 06:18:30;;;;;;;15.25;5.15;;;10.20;99.90;;;;;;5005544;28;20129;-46
2022/11/07 06:20:59;;;;;;;17.90;6.10;;;10.70;99.90;;;;;;5008895;28;20038;-45
2022/11/07 06:23:25;;;;;;;23.42;6.68;;;10.20;99.90;;;;;;5004406;28;20041;-47
2022/11/07 06:25:51;;;;;;;19.20;6.75;;;10.20;99.90;;;;;;5007889;28;20720;-46
2022/11/07 06:28:17;;;;;;;13.30;5.47;;;11.20;99.90;;;;;;5003625;28;20053;-45
2022/11/07 06:30:43;;;;;;;14.52;5.30;;;10.20;99.90;;;;;;5007662;28;20144;-45
2022/11/07 06:33:15;;;;;;;17.13;4.72;;;10.20;99.90;;;;;;5002243;28;20038;-46
2022/11/07 06:35:41;;;;;;;11.63;4.90;;;10.10;99.90;;;;;;5005047;28;20826;-46
2022/11/07 06:38:09;;;;;;;16.42;5.32;;;10.30;99.90;;;;;;5006878;28;20113;-47
2022/11/07 06:40:36;;;;;;;18.80;4.72;;;10.20;99.90;;;;;;5003345;28;20070;-48
2022/11/07 06:43:16;;;;;;;17.98;5.43;;;10.10;99.90;;;;;;5004718;28;20031;-47
2022/11/07 06:45:43;;;;;;;14.13;4.72;;;11.70;99.90;;;;;;5005158;28;20048;-47
2022/11/07 06:48:09;;;;;;;14.88;4.28;;;10.20;99.90;;;;;;5004415;28;20118;-46
2022/11/07 06:50:35;;;;;;;10.32;3.65;;;10.10;99.90;;;;;;5004946;28;20162;-45
2022/11/07 06:53:06;;;;;;;14.85;4.13;;;10.20;99.90;;;;;;5004178;28;20969;-46
2022/11/07 06:55:33;;;;;;;13.38;4.35;;;10.30;99.90;;;;;;5005817;28;20074;-46
2022/11/07 06:58:00;;;;;;;12.85;3.88;;;10.20;99.90;;;;;;5005808;28;20531;-46
2022/11/07 07:00:30;;;;;;;19.15;4.50;;;10.00;99.90;;;;;;5008104;28;20041;-47
2022/11/07 07:02:56;;;;;;;13.52;3.75;;;9.90;99.90;;;;;;5004875;28;20045;-48
2022/11/07 07:05:22;;;;;;;11.73;4.20;;;10.10;99.90;;;;;;5004525;28;20446;-48
2022/11/07 07:07:48;;;;;;;12.00;4.95;;;10.20;99.90;;;;;;5004044;28;20993;-45
2022/11/07 07:10:16;;;;;;;19.13;5.57;;;10.10;99.90;;;;;;5006389;28;20133;-45
2022/11/07 07:12:41;;;;;;;17.95;4.90;;;11.00;99.90;;;;;;5004280;28;20122;-46
2022/11/07 07:15:07;;;;;;;16.42;5.78;;;11.10;99.90;;;;;;5003239;28;20041;-47
2022/11/07 07:17:33;;;;;;;21.15;5.70;;;10.10;99.90;;;;;;5004214;28;20136;-46
2022/11/07 07:19:59;;;;;;;12.82;5.55;;;10.20;99.90;;;;;;5005083;28;20041;-47
2022/11/07 07:22:24;;;;;;;18.85;6.82;;;10.30;99.90;;;;;;5002351;28;20092;-46
2022/11/07 07:24:52;;;;;;;21.48;6.63;;;10.50;99.90;;;;;;5006408;28;20425;-45
2022/11/07 07:27:19;;;;;;;13.80;7.18;;;10.20;99.90;;;;;;5004347;28;20132;-46
2022/11/07 07:29:46;;;;;;;25.33;7.95;;;10.40;99.90;;;;;;5003937;28;20056;-46
2022/11/07 07:32:12;;;;;;;24.95;8.02;;;10.30;99.90;;;;;;5002226;28;20057;-46
2022/11/07 07:34:37;;;;;;;21.88;8.63;;;11.20;99.90;;;;;;5005136;28;20045;-46
2022/11/07 07:37:03;;;;;;;20.27;8.43;;;10.30;99.90;;;;;;5005447;28;20041;-46
2022/11/07 07:39:29;;;;;;;24.50;9.68;;;12.20;99.90;;;;;;5004760;28;20083;-48
2022/11/07 07:41:55;;;;;;;19.45;8.95;;;10.30;99.90;;;;;;5001521;28;20033;-48
2022/11/07 07:44:21;;;;;;;22.20;9.23;;;10.70;99.90;;;;;;5001518;28;20042;-48
2022/11/07 07:46:46;;;;;;;25.90;9.32;;;10.30;99.90;;;;;;5004139;28;20182;-48
2022/11/07 07:49:12;;;;;;;22.30;9.80;;;10.30;99.90;;;;;;5003488;28;20380;-50
2022/11/07 07:51:38;;;;;;;22.70;8.50;;;11.20;99.90;;;;;;5000847;28;20403;-46
2022/11/07 07:54:04;;;;;;;25.00;9.00;;;10.40;99.90;;;;;;5005600;28;20180;-45
2022/11/07 07:56:29;;;;;;;21.13;8.63;;;10.50;99.90;;;;;;5005427;28;20041;-44
2022/11/07 07:58:55;;;;;;;19.50;8.25;;;11.80;99.90;;;;;;5004302;28;20042;-48
2022/11/07 08:01:20;;;;;;;23.13;9.48;;;10.40;99.90;;;;;;5005826;28;20038;-49
2022/11/07 08:03:46;;;;;;;21.15;8.82;;;10.50;99.90;;;;;;5006321;28;20507;-47
2022/11/07 08:06:12;;;;;;;18.38;8.23;;;10.80;99.90;;;;;;5007780;28;20182;-50
2022/11/07 08:08:37;;;;;;;22.85;8.95;;;10.50;99.90;;;;;;5004988;28;20072;-47
2022/11/07 08:11:06;;;;;;;19.65;8.45;;;10.40;99.90;;;;;;5001576;28;20049;-46
2022/11/07 08:13:32;;;;;;;25.75;9.52;;;10.60;99.90;;;;;;5003207;28;20049;-49
2022/11/07 08:16:01;;;;;;;24.20;8.23;;;10.60;99.90;;;;;;5003216;28;20399;-50
2022/11/07 08:18:27;;;;;;;23.70;8.77;;;12.70;99.90;;;;;;5002190;28;20072;-45
2022/11/07 08:20:54;;;;;;;21.45;8.90;;;10.50;99.90;;;;;;5001849;28;20110;-46
2022/11/07 08:23:20;;;;;;;23.52;9.82;;;10.80;99.90;;;;;;5006098;28;20974;-47
2022/11/07 08:25:57;;;;;;;23.35;9.00;;;10.60;99.90;;;;;;5003684;28;20499;-48
2022/11/07 08:28:26;;;;;;;27.38;8.88;;;11.10;99.90;;;;;;5001939;28;20416;-47
2022/11/07 08:30:59;;;;;;;20.13;8.10;;;10.60;99.90;;;;;;5004329;28;20094;-46
2022/11/07 08:33:25;;;;;;;17.75;8.30;;;12.30;99.90;;;;;;5003496;28;20396;-45
2022/11/07 08:35:53;;;;;;;23.00;8.48;;;11.10;99.90;;;;;;4987528;28;20061;-46
2022/11/07 08:38:19;;;;;;;26.77;8.20;;;10.30;99.90;;;;;;5002782;28;20053;-46
2022/11/07 08:40:45;;;;;;;21.60;7.65;;;11.60;99.90;;;;;;5001494;28;20049;-50
2022/11/07 08:43:10;;;;;;;18.88;7.82;;;10.70;99.90;;;;;;5002851;28;20047;-47
2022/11/07 08:45:37;;;;;;;21.50;7.72;;;10.70;99.90;;;;;;5003350;28;20041;-47
2022/11/07 08:48:02;;;;;;;22.58;8.52;;;10.90;99.90;;;;;;5001484;28;20415;-46
2022/11/07 08:50:28;;;;;;;19.35;7.18;;;10.80;99.90;;;;;;5004733;28;20246;-47
2022/11/07 08:52:54;;;;;;;22.17;7.43;;;10.90;99.90;;;;;;5004200;28;20045;-49
2022/11/07 08:55:20;;;;;;;23.17;7.18;;;11.10;99.90;;;;;;5000313;28;20045;-48
2022/11/07 08:57:45;;;;;;;24.38;7.47;;;10.90;99.90;;;;;;4999222;28;20119;-48
2022/11/07 09:00:12;;;;;;;19.88;6.60;;;10.90;99.90;;;;;;5000940;28;21064;-46
2022/11/07 09:02:37;;;;;;;23.92;7.05;;;10.90;99.90;;;;;;5000791;28;20033;-48
2022/11/07 09:05:03;;;;;;;21.15;6.15;;;11.70;99.90;;;;;;5002972;28;20054;-49
2022/11/07 09:07:30;;;;;;;17.52;5.35;;;11.10;99.90;;;;;;5005710;28;20124;-51
2022/11/07 09:09:55;;;;;;;22.17;6.10;;;11.70;99.90;;;;;;5002553;28;21890;-52
2022/11/07 09:12:21;;;;;;;20.25;5.60;;;12.20;99.90;;;;;;5004551;28;20055;-51
2022/11/07 09:14:47;;;;;;;20.52;6.05;;;11.90;99.90;;;;;;5002628;28;20041;-48
2022/11/07 09:17:12;;;;;;;17.60;5.43;;;11.20;99.90;;;;;;5003570;28;20040;-52
2022/11/07 09:19:38;;;;;;;16.20;4.85;;;11.10;99.90;;;;;;5005248;28;20041;-47
2022/11/07 09:22:04;;;;;;;16.73;5.45;;;11.20;99.90;;;;;;5000119;28;20046;-49
2022/11/07 09:24:30;;;;;;;16.85;5.47;;;11.20;99.90;;;;;;5004758;28;20557;-49
2022/11/07 09:26:55;;;;;;;14.25;5.38;;;11.30;99.90;;;;;;5001700;28;20371;-48
2022/11/07 09:29:21;;;;;;;18.23;4.97;;;11.30;99.90;;;;;;5004681;28;20057;-47
2022/11/07 09:31:47;;;;;;;14.88;5.20;;;11.40;99.90;;;;;;5004469;28;20508;-49
2022/11/07 09:34:12;;;;;;;19.65;5.40;;;11.40;99.90;;;;;;5004599;28;20053;-48
2022/11/07 09:36:38;;;;;;;16.98;4.53;;;11.30;99.90;;;;;;5007486;28;20407;-50
2022/11/07 09:39:04;;;;;;;19.88;5.07;;;11.30;99.90;;;;;;5002695;28;20046;-48
2022/11/07 09:41:32;;;;;;;19.70;4.68;;;11.40;99.90;;;;;;5007083;28;20053;-47
2022/11/07 09:44:18;;;;;;;13.20;4.20;;;13.50;99.90;;;;;;5005837;28;20508;-47
2022/11/07 09:47:02;;;;;;;16.60;4.30;;;11.40;99.90;;;;;;5004162;28;21324;-50
2022/11/07 09:49:37;;;;;;;20.67;4.78;;;11.40;99.90;;;;;;5006041;28;20548;-50
2022/11/07 09:52:47;;;;;;;20.48;5.30;;;11.70;99.90;;;;;;5002242;28;20053;-48
2022/11/07 09:55:29;;;;;;;26.17;5.47;;;11.40;99.90;;;;;;5044561;28;20140;-50
2022/11/07 09:58:00;;;;;;;18.58;4.72;;;11.50;99.90;;;;;;5010385;28;20072;-53
2022/11/07 10:00:30;;;;;;;14.83;4.23;;;11.70;99.90;;;;;;5005544;28;20113;-53
2022/11/07 10:02:57;;;;;;;17.45;5.43;;;11.50;99.90;;;;;;5006294;28;20041;-49
2022/11/07 10:05:40;;;;;;;16.85;4.40;;;12.50;99.90;;;;;;5004334;28;20573;-48
2022/11/07 10:08:11;;;;;;;17.10;4.88;;;11.60;99.90;;;;;;5004545;28;20059;-49
2022/11/07 10:10:50;;;;;;;17.67;5.37;;;13.70;99.90;;;;;;5006853;28;20057;-51
2022/11/07 10:13:43;;;;;;;13.73;4.50;;;11.60;99.90;;;;;;5005973;28;20125;-51
2022/11/07 10:16:29;;;;;;;12.77;4.00;;;11.80;99.90;;;;;;5003373;28;20530;-52
2022/11/07 10:19:08;;;;;;;15.27;4.75;;;11.80;99.90;;;;;;5005319;28;20045;-49
2022/11/07 10:21:36;;;;;;;19.05;4.50;;;11.90;99.90;;;;;;5004107;28;20045;-49
2022/11/07 10:24:15;;;;;;;18.27;4.70;;;11.90;99.90;;;;;;5004785;28;20056;-51
2022/11/07 10:26:43;;;;;;;17.30;4.50;;;12.10;99.90;;;;;;5007977;28;20634;-53
2022/11/07 10:29:15;;;;;;;18.35;4.65;;;11.90;99.90;;;;;;5002845;28;20044;-48
2022/11/07 10:31:56;;;;;;;15.88;4.10;;;12.00;99.90;;;;;;5005837;28;20471;-49
2022/11/07 10:34:39;;;;;;;13.15;3.90;;;11.90;99.90;;;;;;5004570;28;20722;-50
2022/11/07 10:37:05;;;;;;;16.02;4.47;;;12.00;99.90;;;;;;5004429;28;20106;-48
2022/11/07 10:39:31;;;;;;;16.08;4.22;;;13.00;99.90;;;;;;5007179;28;20041;-51
2022/11/07 10:42:11;;;;;;;14.10;3.80;;;12.10;99.90;;;;;;5006402;28;20511;-52
2022/11/07 10:44:40;;;;;;;17.38;3.67;;;12.20;99.90;;;;;;5004092;28;20045;-53
2022/11/07 10:47:21;;;;;;;14.05;4.75;;;12.20;99.90;;;;;;5003050;28;20262;-52
2022/11/07 10:49:59;;;;;;;16.17;4.45;;;12.70;99.90;;;;;;5003873;28;20159;-49
2022/11/07 10:52:26;;;;;;;14.80;3.70;;;12.20;99.90;;;;;;5007108;28;20109;-48
2022/11/07 10:55:05;;;;;;;18.63;4.30;;;12.20;99.90;;;;;;4989464;28;20089;-50
2022/11/07 10:57:34;;;;;;;20.45;5.15;;;12.10;99.90;;;;;;5006139;28;20060;-49
2022/11/07 11:00:00;;;;;;;15.45;3.60;;;12.20;99.90;;;;;;5002793;28;20684;-53
2022/11/07 11:02:45;;;;;;;18.17;4.90;;;12.30;99.90;;;;;;5005223;28;20288;-49
2022/11/07 11:05:42;;;;;;;21.20;4.00;;;12.10;99.90;;;;;;5003265;28;20486;-53
2022/11/07 11:08:19;;;;;;;15.00;3.88;;;12.00;99.90;;;;;;5003604;28;20042;-54
2022/11/07 11:10:46;;;;;;;15.20;3.25;;;12.10;99.90;;;;;;5003993;28;20526;-51
2022/11/07 11:13:28;;;;;;;17.27;3.90;;;12.40;99.90;;;;;;5003442;28;20041;-54
2022/11/07 11:15:57;;;;;;;21.88;3.83;;;12.20;99.90;;;;;;5004609;28;20045;-53
2022/11/07 11:18:24;;;;;;;15.25;3.60;;;12.30;99.90;;;;;;5005629;28;20037;-51
2022/11/07 11:21:00;;;;;;;13.18;4.10;;;12.30;99.90;;;;;;5003832;28;20395;-52
2022/11/07 11:23:29;;;;;;;17.67;3.95;;;12.50;99.90;;;;;;5005805;28;20037;-53
2022/11/07 11:26:00;;;;;;;16.30;3.58;;;12.50;99.90;;;;;;5006036;28;20325;-52
2022/11/07 11:28:34;;;;;;;18.83;3.53;;;12.50;99.90;;;;;;5004735;28;20839;-52
2022/11/07 11:31:07;;;;;;;20.73;3.80;;;12.60;99.90;;;;;;5003865;28;20046;-55
2022/11/07 11:34:04;;;;;;;14.45;3.45;;;12.50;99.90;;;;;;5003905;28;20044;-52
2022/11/07 11:36:37;;;;;;;17.10;4.30;;;12.80;99.90;;;;;;5012293;28;20057;-53
2022/11/07 11:39:11;;;;;;;17.75;4.00;;;12.60;99.90;;;;;;5004550;28;20053;-52
2022/11/07 11:41:50;;;;;;;13.48;4.22;;;14.00;99.90;;;;;;5001498;28;20124;-54
2022/11/07 11:44:39;;;;;;;19.73;3.92;;;12.70;99.90;;;;;;5000711;28;20362;-53
2022/11/07 11:47:08;;;;;;;22.00;4.30;;;12.90;99.90;;;;;;5001935;28;20445;-53
2022/11/07 11:49:56;;;;;;;18.55;4.10;;;11.80;99.90;;;;;;5006178;28;20094;-51
2022/11/07 11:52:24;;;;;;;14.05;3.75;;;12.90;99.90;;;;;;5005944;28;20410;-52
2022/11/07 11:54:52;;;;;;;15.07;3.83;;;12.80;99.90;;;;;;5002614;28;20049;-52
2022/11/07 11:57:45;;;;;;;16.30;3.92;;;13.00;99.90;;;;;;5004144;28;20101;-52
2022/11/07 12:00:18;;;;;;;12.52;3.75;;;13.10;99.90;;;;;;5001717;28;20049;-50
2022/11/07 12:02:53;;;;;;;12.48;3.63;;;12.90;99.90;;;;;;5005272;28;20045;-53
2022/11/07 12:05:28;;;;;;;14.55;3.80;;;13.00;99.90;;;;;;5002939;28;20499;-51
2022/11/07 12:08:23;;;;;;;12.25;3.22;;;14.60;99.90;;;;;;5006578;28;20041;-50
2022/11/07 12:11:10;;;;;;;12.27;3.15;;;13.00;99.90;;;;;;5004945;28;20369;-52
2022/11/07 12:13:39;;;;;;;14.43;3.10;;;13.20;99.90;;;;;;5001714;28;20124;-49
2022/11/07 12:16:17;;;;;;;11.73;3.10;;;15.10;99.90;;;;;;5005315;28;20400;-49
2022/11/07 12:18:52;;;;;;;9.07;3.13;;;13.30;99.90;;;;;;5002850;28;20046;-53
2022/11/07 12:21:31;;;;;;;11.07;3.28;;;13.20;99.90;;;;;;5000944;28;20082;-48
2022/11/07 12:24:19;;;;;;;16.02;3.45;;;13.40;99.90;;;;;;5003778;28;20033;-53
2022/11/07 12:27:12;;;;;;;15.77;3.70;;;13.30;99.90;;;;;;5004884;28;20069;-48
2022/11/07 12:29:57;;;;;;;10.20;2.80;;;13.60;99.90;;;;;;5004471;28;20103;-54
2022/11/07 12:32:38;;;;;;;10.52;2.65;;;13.40;99.90;;;;;;5001211;28;20049;-48
2022/11/07 12:35:33;;;;;;;10.95;2.60;;;13.20;99.90;;;;;;5003353;28;21815;-51
2022/11/07 12:38:13;;;;;;;11.40;2.92;;;13.30;99.90;;;;;;5002093;28;20044;-52
2022/11/07 12:41:01;;;;;;;10.95;2.78;;;13.40;99.90;;;;;;5000197;28;20045;-49
2022/11/07 12:43:46;;;;;;;11.80;2.75;;;13.30;99.90;;;;;;5000611;28;20053;-48
2022/11/07 12:46:39;;;;;;;12.85;2.90;;;15.50;99.90;;;;;;5001882;28;20041;-49
2022/11/07 12:49:08;;;;;;;14.10;3.03;;;13.50;99.90;;;;;;5001333;28;20053;-51
2022/11/07 12:51:43;;;;;;;11.65;3.13;;;13.50;99.90;;;;;;4999283;28;20049;-52
2022/11/07 12:54:40;;;;;;;11.27;3.35;;;13.60;99.90;;;;;;5003746;28;20052;-50
2022/11/07 12:57:16;;;;;;;10.70;2.60;;;13.60;99.90;;;;;;5004391;28;20523;-52
2022/11/07 12:59:47;;;;;;;9.95;2.55;;;13.50;99.90;;;;;;5004263;28;20087;-54
2022/11/07 13:02:38;;;;;;;11.30;3.10;;;13.60;99.90;;;;;;5001623;28;20066;-49
2022/11/07 13:05:19;;;;;;;11.55;2.83;;;13.60;99.90;;;;;;4999352;28;20100;-51